Time;durP1;ratioP1;P1;durP2;ratioP2;P2;SDS_P1;SDS_P2;PMS_P1;PMS_P2;Temp;Humidity;BMP_temperature;BMP_pressure;BME280_temperature;BME280_humidity;BME280_pressure;Samples;Min_cycle;Max_cycle;Signal;HPM_P1;HPM_P2
2021/01/27 00:01:12;;;;;;;30.57;17.03;;;;;;;-0.79;82.73;98084.06;506130;1149;102565;-39
2021/01/27 00:11:17;;;;;;;29.13;17.27;;;;;;;-0.86;82.83;98076.16;506080;1149;102040;-40
2021/01/27 00:21:21;;;;;;;26.67;17.10;;;;;;;-0.80;82.67;98077.25;505488;1149;102450;-40
2021/01/27 00:31:51;;;;;;;28.70;15.70;;;;;;;-0.78;83.06;98080.48;504522;1151;105126;-40
2021/01/27 00:41:56;;;;;;;30.70;16.53;;;;;;;-0.76;83.02;98076.73;506117;1149;102632;-40
2021/01/27 00:52:00;;;;;;;36.40;17.97;;;;;;;-0.74;83.23;98081.75;506182;1149;102314;-40
2021/01/27 01:02:05;;;;;;;26.00;16.30;;;;;;;-0.76;82.78;98079.33;505873;1149;102227;-40
2021/01/27 01:12:09;;;;;;;30.93;17.30;;;;;;;-0.75;83.39;98067.97;506083;1149;102121;-40
2021/01/27 01:22:14;;;;;;;32.57;17.17;;;;;;;-0.69;83.23;98061.30;505338;1149;103108;-40
2021/01/27 01:32:18;;;;;;;31.03;17.73;;;;;;;-0.70;83.31;98055.30;506118;1149;102482;-40
2021/01/27 01:42:24;;;;;;;28.60;17.43;;;;;;;-0.67;83.41;98048.95;506099;1149;102398;-40
2021/01/27 01:52:29;;;;;;;28.37;16.23;;;;;;;-0.59;82.90;98058.47;506043;1149;102314;-40
2021/01/27 02:02:34;;;;;;;26.23;14.13;;;;;;;-0.63;83.45;98052.81;506108;1148;102882;-40
2021/01/27 02:12:54;;;;;;;24.80;13.73;;;;;;;-0.61;83.75;98053.45;506062;1149;103688;-40
2021/01/27 02:33:57;;;;;;;23.60;14.17;;;;;;;-0.66;83.76;98047.97;504583;1157;102278;-40
2021/01/27 02:44:05;;;;;;;24.27;14.70;;;;;;;-0.69;83.93;98049.13;506141;1149;102453;-40
2021/01/27 02:54:10;;;;;;;28.30;15.90;;;;;;;-0.67;83.93;98041.98;506104;1149;102358;-40
2021/01/27 03:04:22;;;;;;;27.60;15.47;;;;;;;-0.67;83.32;98038.57;506151;1149;102824;-40
2021/01/27 03:14:27;;;;;;;23.43;13.87;;;;;;;-0.63;83.64;98039.84;506134;1149;102307;-39
2021/01/27 03:24:50;;;;;;;26.23;14.30;;;;;;;-0.62;83.54;98042.26;505141;1149;102377;-40
2021/01/27 03:35:00;;;;;;;30.23;16.20;;;;;;;-0.57;83.51;98041.73;506100;1149;102356;-39
2021/01/27 03:45:08;;;;;;;28.67;16.23;;;;;;;-0.51;83.58;98051.42;506051;1149;102627;-40
2021/01/27 03:55:14;;;;;;;28.17;14.03;;;;;;;-0.52;83.63;98057.59;506106;1149;102770;-40
2021/01/27 04:05:19;;;;;;;26.83;14.70;;;;;;;-0.54;83.52;98061.35;506138;1149;102345;-40
2021/01/27 04:15:24;;;;;;;48.90;25.43;;;;;;;-0.58;83.63;98071.28;506123;1149;102298;-39
2021/01/27 04:25:28;;;;;;;33.40;20.50;;;;;;;-0.62;84.28;98076.02;505025;1149;101995;-39
2021/01/27 04:35:33;;;;;;;37.97;21.30;;;;;;;-0.64;84.45;98077.17;506122;1149;102564;-40
2021/01/27 04:45:38;;;;;;;30.73;18.03;;;;;;;-0.62;84.15;98070.81;506043;1149;103054;-40
2021/01/27 04:56:02;;;;;;;32.33;17.07;;;;;;;-0.62;85.12;98073.41;506124;1149;102043;-40
2021/01/27 05:06:11;;;;;;;36.00;18.50;;;;;;;-0.68;85.06;98081.09;504960;1149;102417;-41
2021/01/27 05:16:19;;;;;;;31.53;17.63;;;;;;;-0.67;84.51;98077.52;506103;1149;102553;-39
2021/01/27 05:26:27;;;;;;;29.67;16.93;;;;;;;-0.67;85.04;98073.13;504882;1149;102338;-39
2021/01/27 05:36:31;;;;;;;38.83;20.83;;;;;;;-0.66;84.28;98090.33;506099;1149;103206;-39
2021/01/27 05:46:38;;;;;;;40.67;20.03;;;;;;;-0.66;84.36;98092.11;506120;1149;102338;-39
2021/01/27 05:56:42;;;;;;;29.50;16.30;;;;;;;-0.66;84.15;98092.11;506121;1149;101994;-40
2021/01/27 06:06:57;;;;;;;28.40;17.90;;;;;;;-0.66;84.77;98108.50;506149;1149;102419;-39
2021/01/27 06:17:16;;;;;;;50.37;24.00;;;;;;;-0.74;84.28;98113.72;506139;1149;101994;-39
2021/01/27 06:27:34;;;;;;;45.97;21.00;;;;;;;-0.71;84.69;98120.35;504681;1149;103143;-40
2021/01/27 06:38:09;;;;;;;28.20;15.93;;;;;;;-0.74;84.21;98131.89;504563;1151;102390;-39
2021/01/27 06:48:33;;;;;;;29.03;15.13;;;;;;;-0.79;84.64;98133.37;506107;1149;102017;-40
2021/01/27 06:59:13;;;;;;;30.70;15.55;;;;;;;-0.84;84.16;98138.28;506053;1149;102454;-39
2021/01/27 07:09:50;;;;;;;27.97;13.67;;;;;;;-0.88;84.18;98145.59;504588;1153;102773;-40
2021/01/27 07:20:16;;;;;;;19.57;11.27;;;;;;;-0.89;84.53;98150.95;505831;1149;103118;-40
2021/01/27 07:30:27;;;;;;;19.27;9.07;;;;;;;-0.89;83.52;98150.95;506144;1149;102655;-40
2021/01/27 07:40:35;;;;;;;15.50;6.87;;;;;;;-0.84;83.71;98161.64;506115;1149;102391;-39
2021/01/27 07:50:41;;;;;;;16.17;6.47;;;;;;;-0.86;82.61;98156.62;506085;1149;102235;-39
2021/01/27 08:00:54;;;;;;;25.97;10.90;;;;;;;-0.85;83.50;98160.02;506161;1149;102488;-39
2021/01/27 08:11:09;;;;;;;18.43;10.43;;;;;;;-0.78;83.39;98176.53;506064;1149;103127;-39
2021/01/27 08:21:50;;;;;;;22.90;10.33;;;;;;;-0.81;83.29;98174.28;505679;1149;102024;-40
2021/01/27 08:32:26;;;;;;;18.60;10.33;;;;;;;-0.78;82.82;98172.15;506108;1149;102383;-40
2021/01/27 08:42:36;;;;;;;15.73;8.27;;;;;;;-0.72;82.45;98187.05;506104;1149;102400;-39
2021/01/27 08:52:44;;;;;;;19.60;10.70;;;;;;;-0.81;82.59;98189.85;506113;1149;102587;-39
2021/01/27 09:02:50;;;;;;;16.27;8.57;;;;;;;-0.85;82.74;98191.98;506063;1149;102240;-39
2021/01/27 09:13:00;;;;;;;14.97;7.40;;;;;;;-0.87;81.74;98206.91;506105;1149;102012;-40
2021/01/27 09:23:07;;;;;;;20.60;9.70;;;;;;;-0.94;81.65;98203.38;505447;1149;102139;-39
2021/01/27 09:33:11;;;;;;;23.70;12.23;;;;;;;-0.86;82.20;98207.72;506044;1149;102490;-39
2021/01/27 09:43:16;;;;;;;20.75;9.80;;;;;;;-0.74;82.31;98201.17;506139;1149;102178;-39
2021/01/27 09:53:26;;;;;;;17.30;8.93;;;;;;;-0.68;82.15;98195.33;506091;1149;103091;-40
2021/01/27 10:03:34;;;;;;;17.45;9.28;;;;;;;-0.72;81.51;98194.83;506143;1149;102360;-40
2021/01/27 10:13:42;;;;;;;26.37;12.93;;;;;;;-0.78;81.16;98197.30;506154;1149;102423;-39
2021/01/27 10:23:49;;;;;;;20.30;10.80;;;;;;;-0.67;79.96;98194.35;505340;1149;102488;-40
2021/01/27 10:33:54;;;;;;;21.85;11.95;;;;;;;-0.53;79.95;98206.60;506084;1149;102541;-39
2021/01/27 10:44:16;;;;;;;30.87;13.97;;;;;;;-0.47;80.36;98208.55;506078;1149;103651;-39
2021/01/27 10:54:21;;;;;;;26.50;13.30;;;;;;;-0.38;80.76;98194.53;504917;1149;102424;-40
2021/01/27 11:04:25;;;;;;;19.93;11.23;;;;;;;-0.31;79.91;98182.47;506084;1149;102593;-39
2021/01/27 11:14:30;;;;;;;23.37;12.10;;;;;;;-0.23;80.46;98196.41;506120;1149;102038;-39
2021/01/27 11:24:39;;;;;;;27.70;12.30;;;;;;;-0.14;79.87;98187.57;505186;1149;101970;-39
2021/01/27 11:34:43;;;;;;;25.07;12.83;;;;;;;0.15;80.72;98186.87;506140;1149;103180;-40
2021/01/27 11:44:48;;;;;;;25.07;13.27;;;;;;;0.44;80.14;98179.16;506121;1149;102258;-40
2021/01/27 11:54:53;;;;;;;27.65;13.15;;;;;;;0.72;79.98;98173.39;506115;1149;102205;-40
2021/01/27 12:04:58;;;;;;;25.30;11.70;;;;;;;0.85;80.19;98168.36;506105;1149;101990;-39
2021/01/27 12:15:03;;;;;;;25.87;12.77;;;;;;;1.05;79.60;98163.43;506112;1149;102438;-40
2021/01/27 12:25:09;;;;;;;24.40;12.23;;;;;;;0.95;80.21;98153.30;505148;1149;103125;-40
2021/01/27 12:35:14;;;;;;;18.27;9.80;;;;;;;0.88;79.39;98157.59;506132;1149;102472;-39
2021/01/27 12:45:44;;;;;;;16.13;9.67;;;;;;;0.55;79.03;98162.33;504615;1151;102175;-40
2021/01/27 12:55:48;;;;;;;21.97;10.63;;;;;;;0.51;79.32;98161.88;506089;1149;102487;-40
2021/01/27 13:05:52;;;;;;;21.00;11.10;;;;;;;0.74;80.00;98164.42;506163;1149;102004;-40
2021/01/27 13:15:57;;;;;;;25.27;12.33;;;;;;;0.90;79.57;98163.42;506057;1149;103261;-40
2021/01/27 13:26:03;;;;;;;24.17;11.20;;;;;;;0.91;79.20;98165.84;504983;1149;102329;-40
2021/01/27 13:36:07;;;;;;;21.30;10.43;;;;;;;0.97;78.81;98171.34;504528;1155;102115;-40
2021/01/27 13:46:12;;;;;;;27.57;9.93;;;;;;;0.95;78.41;98157.67;506140;1149;102002;-40
2021/01/27 13:56:17;;;;;;;29.30;13.30;;;;;;;0.83;77.79;98165.94;506114;1149;102434;-40
2021/01/27 14:06:22;;;;;;;18.80;8.23;;;;;;;0.74;77.34;98174.02;506056;1149;103082;-40
2021/01/27 14:16:26;;;;;;;10.13;5.27;;;;;;;0.65;75.66;98177.67;506117;1149;102355;-39
2021/01/27 14:26:31;;;;;;;14.55;6.80;;;;;;;0.51;75.05;98190.49;504734;1149;102479;-40
2021/01/27 14:36:36;;;;;;;12.50;4.73;;;;;;;0.48;74.91;98190.84;506113;1149;102367;-40
2021/01/27 14:46:40;;;;;;;8.27;4.80;;;;;;;0.36;72.08;98189.63;506110;1149;102458;-40
2021/01/27 14:56:45;;;;;;;22.43;10.00;;;;;;;0.32;73.04;98182.36;506086;1149;103201;-40
2021/01/27 15:06:50;;;;;;;12.70;5.90;;;;;;;0.21;72.37;98188.77;506086;1149;101973;-39
2021/01/27 15:16:55;;;;;;;18.30;9.83;;;;;;;0.11;71.19;98191.62;506166;1149;102578;-38
2021/01/27 15:27:00;;;;;;;17.30;6.37;;;;;;;0.02;71.01;98195.27;504838;1149;102460;-39
2021/01/27 15:37:05;;;;;;;45.17;14.93;;;;;;;-0.06;70.27;98209.11;506085;1149;102255;-38
2021/01/27 15:47:09;;;;;;;50.10;18.77;;;;;;;-0.08;71.73;98205.06;506130;1149;103152;-38
2021/01/27 15:57:14;;;;;;;29.40;15.13;;;;;;;-0.05;72.84;98210.72;506121;1149;102706;-38
2021/01/27 16:07:19;;;;;;;51.07;25.27;;;;;;;0.02;73.41;98205.67;506159;1149;102236;-38
2021/01/27 16:17:24;;;;;;;54.35;21.55;;;;;;;-0.06;73.30;98206.51;506025;1149;102163;-38
2021/01/27 16:27:29;;;;;;;59.83;23.77;;;;;;;-0.04;73.81;98207.14;504813;1149;102425;-41
2021/01/27 16:37:33;;;;;;;54.50;19.57;;;;;;;-0.02;74.64;98192.18;505489;1149;103119;-39
2021/01/27 16:47:39;;;;;;;42.10;16.43;;;;;;;-0.16;74.01;98194.73;506108;1149;102235;-39
2021/01/27 16:57:43;;;;;;;30.90;15.27;;;;;;;-0.23;75.19;98201.60;506173;1149;102072;-39
2021/01/27 17:07:48;;;;;;;52.90;24.30;;;;;;;-0.25;74.87;98208.73;506094;1149;102557;-39
2021/01/27 17:17:53;;;;;;;33.97;15.87;;;;;;;-0.26;75.23;98210.52;506135;1149;102441;-39
2021/01/27 17:27:58;;;;;;;53.90;21.73;;;;;;;-0.22;75.86;98198.83;504729;1150;103173;-39
2021/01/27 17:38:03;;;;;;;27.93;12.40;;;;;;;-0.26;76.30;98202.73;506052;1149;102325;-39
2021/01/27 17:48:10;;;;;;;28.63;15.23;;;;;;;-0.34;75.80;98198.39;506130;1149;102410;-39
2021/01/27 17:58:15;;;;;;;42.13;21.90;;;;;;;-0.35;76.52;98207.17;506102;1149;102410;-39
2021/01/27 18:08:20;;;;;;;36.57;16.73;;;;;;;-0.34;76.79;98194.99;506127;1149;102648;-39
2021/01/27 18:18:26;;;;;;;42.77;18.53;;;;;;;-0.31;76.50;98186.85;506071;1149;102756;-39
2021/01/27 18:28:33;;;;;;;35.93;17.40;;;;;;;-0.25;76.60;98183.56;504671;1149;102309;-39
2021/01/27 18:38:38;;;;;;;40.30;17.87;;;;;;;-0.21;76.15;98194.44;506077;1149;101969;-39
2021/01/27 18:49:08;;;;;;;27.52;13.80;;;;;;;-0.27;76.33;98182.92;504559;1151;102177;-39
2021/01/27 18:59:13;;;;;;;37.60;14.00;;;;;;;-0.37;76.90;98177.96;506106;1149;102460;-39
2021/01/27 19:09:18;;;;;;;43.50;17.53;;;;;;;-0.44;76.93;98177.03;506133;1149;103041;-39
2021/01/27 19:19:24;;;;;;;107.23;41.47;;;;;;;-0.46;77.15;98173.80;505998;1149;103419;-39
2021/01/27 19:29:29;;;;;;;91.53;42.43;;;;;;;-0.41;76.83;98175.88;506128;1149;102433;-39
2021/01/27 19:39:35;;;;;;;82.40;36.77;;;;;;;-0.28;77.26;98172.70;506120;1149;102261;-39
2021/01/27 19:49:40;;;;;;;122.80;56.33;;;;;;;-0.20;76.56;98178.68;506094;1149;102445;-39
2021/01/27 19:59:45;;;;;;;68.37;29.97;;;;;;;-0.28;76.45;98173.52;506086;1149;103081;-39
2021/01/27 20:09:49;;;;;;;93.80;37.90;;;;;;;-0.23;76.55;98175.62;506090;1149;102402;-39
2021/01/27 20:19:53;;;;;;;90.07;34.23;;;;;;;-0.34;77.06;98169.02;505967;1149;102764;-39
2021/01/27 20:29:57;;;;;;;80.03;31.70;;;;;;;-0.36;77.16;98174.38;506115;1149;102049;-39
2021/01/27 20:40:02;;;;;;;99.80;35.30;;;;;;;-0.29;77.17;98168.49;506130;1149;102426;-39
2021/01/27 20:50:14;;;;;;;95.23;37.13;;;;;;;-0.40;77.00;98159.31;506082;1149;103081;-39
2021/01/27 21:00:22;;;;;;;78.67;32.17;;;;;;;-0.45;77.15;98156.43;506123;1149;102447;-39
2021/01/27 21:10:28;;;;;;;85.40;35.67;;;;;;;-0.48;77.34;98167.94;506153;1149;101974;-39
2021/01/27 21:20:34;;;;;;;85.63;36.97;;;;;;;-0.45;77.42;98165.03;505790;1149;102737;-39
2021/01/27 21:30:41;;;;;;;93.37;36.77;;;;;;;-0.59;77.47;98170.94;506167;1149;102383;-40
2021/01/27 21:40:47;;;;;;;80.23;30.07;;;;;;;-0.59;77.11;98170.13;506068;1149;103090;-39
2021/01/27 21:50:53;;;;;;;59.43;25.43;;;;;;;-0.71;76.87;98175.70;506070;1149;102504;-39
2021/01/27 22:00:57;;;;;;;85.50;31.50;;;;;;;-0.79;77.63;98175.72;506107;1149;102495;-39
2021/01/27 22:11:02;;;;;;;73.77;26.87;;;;;;;-0.80;77.60;98163.72;506120;1149;102298;-39
2021/01/27 22:21:11;;;;;;;79.27;29.27;;;;;;;-0.88;76.84;98161.17;505705;1149;102312;-39
2021/01/27 22:31:15;;;;;;;84.90;27.47;;;;;;;-0.84;77.51;98154.66;504596;1147;102891;-40
2021/01/27 22:41:20;;;;;;;47.53;20.30;;;;;;;-0.85;77.54;98153.05;506123;1149;102295;-39
2021/01/27 22:51:24;;;;;;;52.40;21.05;;;;;;;-0.66;77.28;98146.64;506112;1149;102315;-39
2021/01/27 23:01:30;;;;;;;74.63;29.37;;;;;;;-0.59;77.37;98144.97;506081;1149;102526;-39
2021/01/27 23:11:35;;;;;;;48.67;20.33;;;;;;;-0.63;77.24;98144.50;506116;1149;102004;-39
2021/01/27 23:21:40;;;;;;;49.40;20.67;;;;;;;-0.56;77.69;98125.64;505667;1149;104201;-39
2021/01/27 23:31:44;;;;;;;43.13;18.93;;;;;;;-0.59;76.78;98119.00;506073;1148;102599;-39
2021/01/27 23:41:50;;;;;;;48.17;20.43;;;;;;;-0.73;77.28;98112.73;506107;1149;102364;-39
2021/01/27 23:51:54;;;;;;;54.87;25.17;;;;;;;-0.81;76.77;98119.77;506078;1149;102341;-39
